sensor_id;sensor_type;location;lat;lon;timestamp;P1;durP1;ratioP1;P2;durP2;ratioP2
83125;SDS011;73488;47.234;-1.540;2023-11-21T00:01:02;5.57;;;1.52;;
83125;SDS011;73488;47.234;-1.540;2023-11-21T00:03:33;7.78;;;1.83;;
83125;SDS011;73488;47.234;-1.540;2023-11-21T00:06:57;6.68;;;1.95;;
83125;SDS011;73488;47.234;-1.540;2023-11-21T00:10:21;5.82;;;2.03;;
83125;SDS011;73488;47.234;-1.540;2023-11-21T00:13:46;5.13;;;1.45;;
83125;SDS011;73488;47.234;-1.540;2023-11-21T00:17:10;8.13;;;1.55;;
83125;SDS011;73488;47.234;-1.540;2023-11-21T00:20:34;4.55;;;1.48;;
83125;SDS011;73488;47.234;-1.540;2023-11-21T00:23:57;6.72;;;1.63;;
83125;SDS011;73488;47.234;-1.540;2023-11-21T00:27:21;6.75;;;1.67;;
83125;SDS011;73488;47.234;-1.540;2023-11-21T00:30:45;8.18;;;2.13;;
83125;SDS011;73488;47.234;-1.540;2023-11-21T00:34:11;4.10;;;1.30;;
83125;SDS011;73488;47.234;-1.540;2023-11-21T00:37:35;7.93;;;1.65;;
83125;SDS011;73488;47.234;-1.540;2023-11-21T00:40:59;5.38;;;1.50;;
83125;SDS011;73488;47.234;-1.540;2023-11-21T00:44:23;5.53;;;1.67;;
83125;SDS011;73488;47.234;-1.540;2023-11-21T00:47:47;7.47;;;1.67;;
83125;SDS011;73488;47.234;-1.540;2023-11-21T00:51:10;8.00;;;1.67;;
83125;SDS011;73488;47.234;-1.540;2023-11-21T00:54:34;4.20;;;1.60;;
83125;SDS011;73488;47.234;-1.540;2023-11-21T00:57:59;3.53;;;1.17;;
83125;SDS011;73488;47.234;-1.540;2023-11-21T01:01:24;6.40;;;1.70;;
83125;SDS011;73488;47.234;-1.540;2023-11-21T01:04:48;4.30;;;1.77;;
83125;SDS011;73488;47.234;-1.540;2023-11-21T01:08:11;5.32;;;1.52;;
83125;SDS011;73488;47.234;-1.540;2023-11-21T01:11:35;3.85;;;1.40;;
83125;SDS011;73488;47.234;-1.540;2023-11-21T01:15:01;6.32;;;1.30;;
83125;SDS011;73488;47.234;-1.540;2023-11-21T01:18:25;5.05;;;1.17;;
83125;SDS011;73488;47.234;-1.540;2023-11-21T01:21:49;5.55;;;1.20;;
83125;SDS011;73488;47.234;-1.540;2023-11-21T01:25:14;4.25;;;1.35;;
83125;SDS011;73488;47.234;-1.540;2023-11-21T01:28:38;5.80;;;1.20;;
83125;SDS011;73488;47.234;-1.540;2023-11-21T01:32:02;4.93;;;1.60;;
83125;SDS011;73488;47.234;-1.540;2023-11-21T01:35:26;4.35;;;1.40;;
83125;SDS011;73488;47.234;-1.540;2023-11-21T01:38:55;4.05;;;1.33;;
83125;SDS011;73488;47.234;-1.540;2023-11-21T01:42:20;5.13;;;1.50;;
83125;SDS011;73488;47.234;-1.540;2023-11-21T01:45:44;2.55;;;1.00;;
83125;SDS011;73488;47.234;-1.540;2023-11-21T01:49:08;3.97;;;1.35;;
83125;SDS011;73488;47.234;-1.540;2023-11-21T01:52:34;4.80;;;1.30;;
83125;SDS011;73488;47.234;-1.540;2023-11-21T01:55:58;3.80;;;1.17;;
83125;SDS011;73488;47.234;-1.540;2023-11-21T01:59:28;2.50;;;1.13;;
83125;SDS011;73488;47.234;-1.540;2023-11-21T02:02:54;4.88;;;1.10;;
83125;SDS011;73488;47.234;-1.540;2023-11-21T02:06:18;7.60;;;1.80;;
83125;SDS011;73488;47.234;-1.540;2023-11-21T02:09:44;4.00;;;1.25;;
83125;SDS011;73488;47.234;-1.540;2023-11-21T02:13:08;6.70;;;1.20;;
83125;SDS011;73488;47.234;-1.540;2023-11-21T02:16:34;5.25;;;1.30;;
83125;SDS011;73488;47.234;-1.540;2023-11-21T02:19:58;4.68;;;1.20;;
83125;SDS011;73488;47.234;-1.540;2023-11-21T02:23:22;3.97;;;1.42;;
83125;SDS011;73488;47.234;-1.540;2023-11-21T02:26:46;3.88;;;1.10;;
83125;SDS011;73488;47.234;-1.540;2023-11-21T02:30:13;5.03;;;1.50;;
83125;SDS011;73488;47.234;-1.540;2023-11-21T02:33:37;4.68;;;1.10;;
83125;SDS011;73488;47.234;-1.540;2023-11-21T02:37:01;3.13;;;1.08;;
83125;SDS011;73488;47.234;-1.540;2023-11-21T02:40:25;3.60;;;1.33;;
83125;SDS011;73488;47.234;-1.540;2023-11-21T02:43:49;3.05;;;1.33;;
83125;SDS011;73488;47.234;-1.540;2023-11-21T02:47:13;5.68;;;1.83;;
83125;SDS011;73488;47.234;-1.540;2023-11-21T02:50:37;2.65;;;1.27;;
83125;SDS011;73488;47.234;-1.540;2023-11-21T02:54:03;2.75;;;1.08;;
83125;SDS011;73488;47.234;-1.540;2023-11-21T02:57:27;3.72;;;1.05;;
83125;SDS011;73488;47.234;-1.540;2023-11-21T03:00:51;2.28;;;0.98;;
83125;SDS011;73488;47.234;-1.540;2023-11-21T03:04:15;3.00;;;1.00;;
83125;SDS011;73488;47.234;-1.540;2023-11-21T03:07:39;4.53;;;1.40;;
83125;SDS011;73488;47.234;-1.540;2023-11-21T03:11:03;4.50;;;1.50;;
83125;SDS011;73488;47.234;-1.540;2023-11-21T03:14:27;2.28;;;1.13;;
83125;SDS011;73488;47.234;-1.540;2023-11-21T03:17:51;2.88;;;1.08;;
83125;SDS011;73488;47.234;-1.540;2023-11-21T03:21:16;3.33;;;1.02;;
83125;SDS011;73488;47.234;-1.540;2023-11-21T03:24:39;3.28;;;0.98;;
83125;SDS011;73488;47.234;-1.540;2023-11-21T03:28:03;4.88;;;1.33;;
83125;SDS011;73488;47.234;-1.540;2023-11-21T03:31:28;3.92;;;1.00;;
83125;SDS011;73488;47.234;-1.540;2023-11-21T03:34:55;2.33;;;1.35;;
83125;SDS011;73488;47.234;-1.540;2023-11-21T03:38:19;3.75;;;1.05;;
83125;SDS011;73488;47.234;-1.540;2023-11-21T03:41:47;6.15;;;1.50;;
83125;SDS011;73488;47.234;-1.540;2023-11-21T03:45:11;2.65;;;0.80;;
83125;SDS011;73488;47.234;-1.540;2023-11-21T03:48:35;3.17;;;1.25;;
83125;SDS011;73488;47.234;-1.540;2023-11-21T03:51:59;2.58;;;1.00;;
83125;SDS011;73488;47.234;-1.540;2023-11-21T03:55:23;5.30;;;1.05;;
83125;SDS011;73488;47.234;-1.540;2023-11-21T03:58:47;2.20;;;0.80;;
83125;SDS011;73488;47.234;-1.540;2023-11-21T04:02:11;4.22;;;0.90;;
83125;SDS011;73488;47.234;-1.540;2023-11-21T04:05:35;2.42;;;0.88;;
83125;SDS011;73488;47.234;-1.540;2023-11-21T04:09:00;3.45;;;1.40;;
83125;SDS011;73488;47.234;-1.540;2023-11-21T04:12:24;3.60;;;1.13;;
83125;SDS011;73488;47.234;-1.540;2023-11-21T04:15:48;4.15;;;1.45;;
83125;SDS011;73488;47.234;-1.540;2023-11-21T04:19:13;6.25;;;0.70;;
83125;SDS011;73488;47.234;-1.540;2023-11-21T04:22:38;2.75;;;1.15;;
83125;SDS011;73488;47.234;-1.540;2023-11-21T04:26:02;3.20;;;1.10;;
83125;SDS011;73488;47.234;-1.540;2023-11-21T04:29:25;2.85;;;0.90;;
83125;SDS011;73488;47.234;-1.540;2023-11-21T04:32:49;2.58;;;0.90;;
83125;SDS011;73488;47.234;-1.540;2023-11-21T04:36:13;2.30;;;0.80;;
83125;SDS011;73488;47.234;-1.540;2023-11-21T04:39:37;2.40;;;1.10;;
83125;SDS011;73488;47.234;-1.540;2023-11-21T04:43:01;2.42;;;0.82;;
83125;SDS011;73488;47.234;-1.540;2023-11-21T04:46:25;3.35;;;1.15;;
83125;SDS011;73488;47.234;-1.540;2023-11-21T04:49:49;2.33;;;1.13;;
83125;SDS011;73488;47.234;-1.540;2023-11-21T04:53:13;3.30;;;1.17;;
83125;SDS011;73488;47.234;-1.540;2023-11-21T04:56:37;3.92;;;1.08;;
83125;SDS011;73488;47.234;-1.540;2023-11-21T05:00:02;2.38;;;0.93;;
83125;SDS011;73488;47.234;-1.540;2023-11-21T05:03:26;1.98;;;0.73;;
83125;SDS011;73488;47.234;-1.540;2023-11-21T05:06:50;2.40;;;0.63;;
83125;SDS011;73488;47.234;-1.540;2023-11-21T05:10:14;2.88;;;1.10;;
83125;SDS011;73488;47.234;-1.540;2023-11-21T05:13:47;2.95;;;0.80;;
83125;SDS011;73488;47.234;-1.540;2023-11-21T05:17:12;3.65;;;0.70;;
83125;SDS011;73488;47.234;-1.540;2023-11-21T05:20:36;3.55;;;0.80;;
83125;SDS011;73488;47.234;-1.540;2023-11-21T05:24:01;1.80;;;1.00;;
83125;SDS011;73488;47.234;-1.540;2023-11-21T05:27:25;1.45;;;0.73;;
83125;SDS011;73488;47.234;-1.540;2023-11-21T05:30:49;2.58;;;0.55;;
83125;SDS011;73488;47.234;-1.540;2023-11-21T05:34:13;3.08;;;1.15;;
83125;SDS011;73488;47.234;-1.540;2023-11-21T05:37:40;3.20;;;0.80;;
83125;SDS011;73488;47.234;-1.540;2023-11-21T05:41:04;1.70;;;0.82;;
83125;SDS011;73488;47.234;-1.540;2023-11-21T05:44:29;3.50;;;0.90;;
83125;SDS011;73488;47.234;-1.540;2023-11-21T05:47:54;3.03;;;1.10;;
83125;SDS011;73488;47.234;-1.540;2023-11-21T05:51:18;4.90;;;1.30;;
83125;SDS011;73488;47.234;-1.540;2023-11-21T05:54:43;4.78;;;0.95;;
83125;SDS011;73488;47.234;-1.540;2023-11-21T05:58:07;3.20;;;0.80;;
83125;SDS011;73488;47.234;-1.540;2023-11-21T06:01:32;2.15;;;0.60;;
83125;SDS011;73488;47.234;-1.540;2023-11-21T06:04:56;4.80;;;1.58;;
83125;SDS011;73488;47.234;-1.540;2023-11-21T06:08:20;2.45;;;0.80;;
83125;SDS011;73488;47.234;-1.540;2023-11-21T06:11:45;2.92;;;1.30;;
83125;SDS011;73488;47.234;-1.540;2023-11-21T06:15:09;3.78;;;0.90;;
83125;SDS011;73488;47.234;-1.540;2023-11-21T06:18:34;2.88;;;0.60;;
83125;SDS011;73488;47.234;-1.540;2023-11-21T06:21:59;3.08;;;0.80;;
83125;SDS011;73488;47.234;-1.540;2023-11-21T06:25:23;2.80;;;0.80;;
83125;SDS011;73488;47.234;-1.540;2023-11-21T06:28:46;2.80;;;0.77;;
83125;SDS011;73488;47.234;-1.540;2023-11-21T06:32:10;1.58;;;0.60;;
83125;SDS011;73488;47.234;-1.540;2023-11-21T06:35:35;2.53;;;0.90;;
83125;SDS011;73488;47.234;-1.540;2023-11-21T06:38:59;3.28;;;0.70;;
83125;SDS011;73488;47.234;-1.540;2023-11-21T06:42:24;2.55;;;0.98;;
83125;SDS011;73488;47.234;-1.540;2023-11-21T06:45:48;5.28;;;0.70;;
83125;SDS011;73488;47.234;-1.540;2023-11-21T06:49:13;4.85;;;1.25;;
83125;SDS011;73488;47.234;-1.540;2023-11-21T06:52:37;3.78;;;1.00;;
83125;SDS011;73488;47.234;-1.540;2023-11-21T06:56:01;4.47;;;1.25;;
83125;SDS011;73488;47.234;-1.540;2023-11-21T06:59:27;4.82;;;1.13;;
83125;SDS011;73488;47.234;-1.540;2023-11-21T07:02:55;3.33;;;1.02;;
83125;SDS011;73488;47.234;-1.540;2023-11-21T07:06:19;6.43;;;1.40;;
83125;SDS011;73488;47.234;-1.540;2023-11-21T07:09:43;7.55;;;1.25;;
83125;SDS011;73488;47.234;-1.540;2023-11-21T07:13:07;6.63;;;1.00;;
83125;SDS011;73488;47.234;-1.540;2023-11-21T07:16:36;5.03;;;1.23;;
83125;SDS011;73488;47.234;-1.540;2023-11-21T07:20:00;11.13;;;1.40;;
83125;SDS011;73488;47.234;-1.540;2023-11-21T07:23:24;5.47;;;1.42;;
83125;SDS011;73488;47.234;-1.540;2023-11-21T07:26:48;8.32;;;1.30;;
83125;SDS011;73488;47.234;-1.540;2023-11-21T07:30:12;8.43;;;1.50;;
83125;SDS011;73488;47.234;-1.540;2023-11-21T07:33:37;3.88;;;1.63;;
83125;SDS011;73488;47.234;-1.540;2023-11-21T07:37:01;3.33;;;1.10;;
83125;SDS011;73488;47.234;-1.540;2023-11-21T07:40:25;10.88;;;1.35;;
83125;SDS011;73488;47.234;-1.540;2023-11-21T07:43:49;9.85;;;1.67;;
83125;SDS011;73488;47.234;-1.540;2023-11-21T07:47:15;10.05;;;1.90;;
83125;SDS011;73488;47.234;-1.540;2023-11-21T07:50:39;6.13;;;1.25;;
83125;SDS011;73488;47.234;-1.540;2023-11-21T07:54:03;9.32;;;1.50;;
83125;SDS011;73488;47.234;-1.540;2023-11-21T07:57:27;5.43;;;1.58;;
83125;SDS011;73488;47.234;-1.540;2023-11-21T08:00:51;6.38;;;1.40;;
83125;SDS011;73488;47.234;-1.540;2023-11-21T08:04:15;4.75;;;1.60;;
83125;SDS011;73488;47.234;-1.540;2023-11-21T08:07:41;7.15;;;1.65;;
83125;SDS011;73488;47.234;-1.540;2023-11-21T08:11:05;8.48;;;1.60;;
83125;SDS011;73488;47.234;-1.540;2023-11-21T08:14:29;5.88;;;2.05;;
83125;SDS011;73488;47.234;-1.540;2023-11-21T08:17:54;8.65;;;1.90;;
83125;SDS011;73488;47.234;-1.540;2023-11-21T08:21:17;6.32;;;1.83;;
83125;SDS011;73488;47.234;-1.540;2023-11-21T08:24:43;8.93;;;1.48;;
83125;SDS011;73488;47.234;-1.540;2023-11-21T08:28:10;6.53;;;1.20;;
83125;SDS011;73488;47.234;-1.540;2023-11-21T08:31:34;4.30;;;1.20;;
83125;SDS011;73488;47.234;-1.540;2023-11-21T08:34:58;8.35;;;1.50;;
83125;SDS011;73488;47.234;-1.540;2023-11-21T08:38:22;7.90;;;1.48;;
83125;SDS011;73488;47.234;-1.540;2023-11-21T08:41:49;5.20;;;1.20;;
83125;SDS011;73488;47.234;-1.540;2023-11-21T08:44:39;7.28;;;1.60;;
83125;SDS011;73488;47.234;-1.540;2023-11-21T08:47:05;7.75;;;1.75;;
83125;SDS011;73488;47.234;-1.540;2023-11-21T08:49:31;6.00;;;1.33;;
83125;SDS011;73488;47.234;-1.540;2023-11-21T08:51:57;5.47;;;1.08;;
83125;SDS011;73488;47.234;-1.540;2023-11-21T08:54:24;8.30;;;1.75;;
83125;SDS011;73488;47.234;-1.540;2023-11-21T08:56:51;8.05;;;1.70;;
83125;SDS011;73488;47.234;-1.540;2023-11-21T08:59:20;5.85;;;1.60;;
83125;SDS011;73488;47.234;-1.540;2023-11-21T09:01:46;5.30;;;1.40;;
83125;SDS011;73488;47.234;-1.540;2023-11-21T09:04:12;6.65;;;1.63;;
83125;SDS011;73488;47.234;-1.540;2023-11-21T09:06:38;6.22;;;1.67;;
83125;SDS011;73488;47.234;-1.540;2023-11-21T09:09:04;5.85;;;1.55;;
83125;SDS011;73488;47.234;-1.540;2023-11-21T09:11:31;6.25;;;1.38;;
83125;SDS011;73488;47.234;-1.540;2023-11-21T09:13:59;6.00;;;2.10;;
83125;SDS011;73488;47.234;-1.540;2023-11-21T09:16:24;5.03;;;1.25;;
83125;SDS011;73488;47.234;-1.540;2023-11-21T09:18:50;4.38;;;1.48;;
83125;SDS011;73488;47.234;-1.540;2023-11-21T09:21:15;4.95;;;1.27;;
83125;SDS011;73488;47.234;-1.540;2023-11-21T09:23:40;4.75;;;1.35;;
83125;SDS011;73488;47.234;-1.540;2023-11-21T09:28:35;5.93;;;1.38;;
83125;SDS011;73488;47.234;-1.540;2023-11-21T09:31:04;7.95;;;1.90;;
83125;SDS011;73488;47.234;-1.540;2023-11-21T09:33:30;4.72;;;1.00;;
83125;SDS011;73488;47.234;-1.540;2023-11-21T09:35:59;4.45;;;1.42;;
83125;SDS011;73488;47.234;-1.540;2023-11-21T09:38:24;5.88;;;1.63;;
83125;SDS011;73488;47.234;-1.540;2023-11-21T09:40:50;4.53;;;1.15;;
83125;SDS011;73488;47.234;-1.540;2023-11-21T09:43:16;4.13;;;1.27;;
83125;SDS011;73488;47.234;-1.540;2023-11-21T09:45:46;4.53;;;1.73;;
83125;SDS011;73488;47.234;-1.540;2023-11-21T09:48:13;5.97;;;1.13;;
83125;SDS011;73488;47.234;-1.540;2023-11-21T09:50:39;4.32;;;1.52;;
83125;SDS011;73488;47.234;-1.540;2023-11-21T09:53:17;3.50;;;1.45;;
83125;SDS011;73488;47.234;-1.540;2023-11-21T09:55:44;3.05;;;1.33;;
83125;SDS011;73488;47.234;-1.540;2023-11-21T09:58:11;3.90;;;1.15;;
83125;SDS011;73488;47.234;-1.540;2023-11-21T10:00:41;6.00;;;1.30;;
83125;SDS011;73488;47.234;-1.540;2023-11-21T10:03:08;3.28;;;1.10;;
83125;SDS011;73488;47.234;-1.540;2023-11-21T10:05:34;4.30;;;1.13;;
83125;SDS011;73488;47.234;-1.540;2023-11-21T10:08:00;4.10;;;1.33;;
83125;SDS011;73488;47.234;-1.540;2023-11-21T10:10:26;2.72;;;1.17;;
83125;SDS011;73488;47.234;-1.540;2023-11-21T10:12:56;5.47;;;1.15;;
83125;SDS011;73488;47.234;-1.540;2023-11-21T10:15:22;3.95;;;1.10;;
83125;SDS011;73488;47.234;-1.540;2023-11-21T10:17:50;5.07;;;1.05;;
83125;SDS011;73488;47.234;-1.540;2023-11-21T10:20:18;4.50;;;1.00;;
83125;SDS011;73488;47.234;-1.540;2023-11-21T10:22:49;3.90;;;0.95;;
83125;SDS011;73488;47.234;-1.540;2023-11-21T10:25:15;2.92;;;1.00;;
83125;SDS011;73488;47.234;-1.540;2023-11-21T10:27:41;4.45;;;1.00;;
83125;SDS011;73488;47.234;-1.540;2023-11-21T10:30:08;3.53;;;1.45;;
83125;SDS011;73488;47.234;-1.540;2023-11-21T10:32:37;3.38;;;0.98;;
83125;SDS011;73488;47.234;-1.540;2023-11-21T10:35:03;8.85;;;1.88;;
83125;SDS011;73488;47.234;-1.540;2023-11-21T10:37:35;5.30;;;1.08;;
83125;SDS011;73488;47.234;-1.540;2023-11-21T10:40:04;2.83;;;0.93;;
83125;SDS011;73488;47.234;-1.540;2023-11-21T10:42:32;2.45;;;1.10;;
83125;SDS011;73488;47.234;-1.540;2023-11-21T10:44:57;4.05;;;1.25;;
83125;SDS011;73488;47.234;-1.540;2023-11-21T10:47:23;4.22;;;1.48;;
83125;SDS011;73488;47.234;-1.540;2023-11-21T10:49:49;3.90;;;1.30;;
83125;SDS011;73488;47.234;-1.540;2023-11-21T10:52:14;3.70;;;1.08;;
83125;SDS011;73488;47.234;-1.540;2023-11-21T10:54:43;6.00;;;1.30;;
83125;SDS011;73488;47.234;-1.540;2023-11-21T10:57:08;3.38;;;1.08;;
83125;SDS011;73488;47.234;-1.540;2023-11-21T10:59:35;4.13;;;1.20;;
83125;SDS011;73488;47.234;-1.540;2023-11-21T11:02:01;3.85;;;1.20;;
83125;SDS011;73488;47.234;-1.540;2023-11-21T11:04:46;3.47;;;1.27;;
83125;SDS011;73488;47.234;-1.540;2023-11-21T11:07:13;2.65;;;0.60;;
83125;SDS011;73488;47.234;-1.540;2023-11-21T11:09:41;4.43;;;1.00;;
83125;SDS011;73488;47.234;-1.540;2023-11-21T11:12:06;4.20;;;1.52;;
83125;SDS011;73488;47.234;-1.540;2023-11-21T11:14:32;5.03;;;1.05;;
83125;SDS011;73488;47.234;-1.540;2023-11-21T11:16:58;4.20;;;0.90;;
83125;SDS011;73488;47.234;-1.540;2023-11-21T11:19:25;3.80;;;1.02;;
83125;SDS011;73488;47.234;-1.540;2023-11-21T11:29:56;6.07;;;1.00;;
83125;SDS011;73488;47.234;-1.540;2023-11-21T11:32:37;3.97;;;1.00;;
83125;SDS011;73488;47.234;-1.540;2023-11-21T11:35:14;4.35;;;0.90;;
83125;SDS011;73488;47.234;-1.540;2023-11-21T11:37:44;2.50;;;0.60;;
83125;SDS011;73488;47.234;-1.540;2023-11-21T11:40:13;3.08;;;0.98;;
83125;SDS011;73488;47.234;-1.540;2023-11-21T11:42:40;2.63;;;0.75;;
83125;SDS011;73488;47.234;-1.540;2023-11-21T11:45:21;3.80;;;0.80;;
83125;SDS011;73488;47.234;-1.540;2023-11-21T11:47:47;4.70;;;1.15;;
83125;SDS011;73488;47.234;-1.540;2023-11-21T11:50:13;3.08;;;1.00;;
83125;SDS011;73488;47.234;-1.540;2023-11-21T11:53:11;4.32;;;0.98;;
83125;SDS011;73488;47.234;-1.540;2023-11-21T11:55:39;3.65;;;1.13;;
83125;SDS011;73488;47.234;-1.540;2023-11-21T11:58:05;2.75;;;0.63;;
83125;SDS011;73488;47.234;-1.540;2023-11-21T12:02:58;3.65;;;0.95;;
83125;SDS011;73488;47.234;-1.540;2023-11-21T12:05:31;2.65;;;1.02;;
83125;SDS011;73488;47.234;-1.540;2023-11-21T12:08:10;2.25;;;0.80;;
83125;SDS011;73488;47.234;-1.540;2023-11-21T12:10:36;4.93;;;0.82;;
83125;SDS011;73488;47.234;-1.540;2023-11-21T12:13:07;3.00;;;0.98;;
83125;SDS011;73488;47.234;-1.540;2023-11-21T12:15:35;3.72;;;0.70;;
83125;SDS011;73488;47.234;-1.540;2023-11-21T12:18:01;2.95;;;0.98;;
83125;SDS011;73488;47.234;-1.540;2023-11-21T12:20:27;2.83;;;0.60;;
83125;SDS011;73488;47.234;-1.540;2023-11-21T12:22:53;1.67;;;0.95;;
83125;SDS011;73488;47.234;-1.540;2023-11-21T12:25:27;3.92;;;0.85;;
83125;SDS011;73488;47.234;-1.540;2023-11-21T12:27:59;2.63;;;0.65;;
83125;SDS011;73488;47.234;-1.540;2023-11-21T12:30:26;3.42;;;0.85;;
83125;SDS011;73488;47.234;-1.540;2023-11-21T12:32:56;4.22;;;0.95;;
83125;SDS011;73488;47.234;-1.540;2023-11-21T12:35:26;1.80;;;0.75;;
83125;SDS011;73488;47.234;-1.540;2023-11-21T12:37:53;1.83;;;0.60;;
83125;SDS011;73488;47.234;-1.540;2023-11-21T12:40:20;5.35;;;0.90;;
83125;SDS011;73488;47.234;-1.540;2023-11-21T12:42:48;2.40;;;0.55;;
83125;SDS011;73488;47.234;-1.540;2023-11-21T12:45:27;4.55;;;0.93;;
83125;SDS011;73488;47.234;-1.540;2023-11-21T12:50:20;3.10;;;0.85;;
83125;SDS011;73488;47.234;-1.540;2023-11-21T12:52:53;2.83;;;1.15;;
83125;SDS011;73488;47.234;-1.540;2023-11-21T12:55:20;3.53;;;0.80;;
83125;SDS011;73488;47.234;-1.540;2023-11-21T12:57:49;1.60;;;0.73;;
83125;SDS011;73488;47.234;-1.540;2023-11-21T13:00:31;3.90;;;1.00;;
83125;SDS011;73488;47.234;-1.540;2023-11-21T13:02:58;3.80;;;1.05;;
83125;SDS011;73488;47.234;-1.540;2023-11-21T13:06:27;2.28;;;1.00;;
83125;SDS011;73488;47.234;-1.540;2023-11-21T13:08:58;2.70;;;0.60;;
83125;SDS011;73488;47.234;-1.540;2023-11-21T13:12:25;1.58;;;0.82;;
83125;SDS011;73488;47.234;-1.540;2023-11-21T13:15:49;3.25;;;1.05;;
83125;SDS011;73488;47.234;-1.540;2023-11-21T13:18:15;2.75;;;0.68;;
83125;SDS011;73488;47.234;-1.540;2023-11-21T13:20:41;1.52;;;0.82;;
83125;SDS011;73488;47.234;-1.540;2023-11-21T13:23:11;2.60;;;0.70;;
83125;SDS011;73488;47.234;-1.540;2023-11-21T13:25:41;3.55;;;0.90;;
83125;SDS011;73488;47.234;-1.540;2023-11-21T13:28:07;4.28;;;0.70;;
83125;SDS011;73488;47.234;-1.540;2023-11-21T13:30:34;2.03;;;0.68;;
83125;SDS011;73488;47.234;-1.540;2023-11-21T13:33:01;2.20;;;0.63;;
83125;SDS011;73488;47.234;-1.540;2023-11-21T13:35:27;2.85;;;0.70;;
83125;SDS011;73488;47.234;-1.540;2023-11-21T13:38:06;1.52;;;0.95;;
83125;SDS011;73488;47.234;-1.540;2023-11-21T13:40:34;2.78;;;0.50;;
83125;SDS011;73488;47.234;-1.540;2023-11-21T13:43:08;6.72;;;0.90;;
83125;SDS011;73488;47.234;-1.540;2023-11-21T13:45:38;1.77;;;0.70;;
83125;SDS011;73488;47.234;-1.540;2023-11-21T13:48:07;6.47;;;1.23;;
83125;SDS011;73488;47.234;-1.540;2023-11-21T13:50:37;1.77;;;0.60;;
83125;SDS011;73488;47.234;-1.540;2023-11-21T13:53:02;1.60;;;1.02;;
83125;SDS011;73488;47.234;-1.540;2023-11-21T13:55:36;3.65;;;0.93;;
83125;SDS011;73488;47.234;-1.540;2023-11-21T13:58:02;1.00;;;0.43;;
83125;SDS011;73488;47.234;-1.540;2023-11-21T14:00:29;1.55;;;0.70;;
83125;SDS011;73488;47.234;-1.540;2023-11-21T14:03:10;3.75;;;0.70;;
83125;SDS011;73488;47.234;-1.540;2023-11-21T14:05:47;2.08;;;0.85;;
83125;SDS011;73488;47.234;-1.540;2023-11-21T14:08:17;1.55;;;0.52;;
83125;SDS011;73488;47.234;-1.540;2023-11-21T14:10:45;3.00;;;1.10;;
83125;SDS011;73488;47.234;-1.540;2023-11-21T14:13:15;3.00;;;1.13;;
83125;SDS011;73488;47.234;-1.540;2023-11-21T14:15:41;3.20;;;0.77;;
83125;SDS011;73488;47.234;-1.540;2023-11-21T14:18:10;2.63;;;0.70;;
83125;SDS011;73488;47.234;-1.540;2023-11-21T14:20:38;1.33;;;0.85;;
83125;SDS011;73488;47.234;-1.540;2023-11-21T14:23:05;3.10;;;0.70;;
83125;SDS011;73488;47.234;-1.540;2023-11-21T14:25:32;1.90;;;0.60;;
83125;SDS011;73488;47.234;-1.540;2023-11-21T14:27:58;2.97;;;1.05;;
83125;SDS011;73488;47.234;-1.540;2023-11-21T14:30:24;1.88;;;0.70;;
83125;SDS011;73488;47.234;-1.540;2023-11-21T14:32:50;1.45;;;0.45;;
83125;SDS011;73488;47.234;-1.540;2023-11-21T14:35:16;3.08;;;1.25;;
83125;SDS011;73488;47.234;-1.540;2023-11-21T14:37:42;2.25;;;0.70;;
83125;SDS011;73488;47.234;-1.540;2023-11-21T14:40:08;3.75;;;0.85;;
83125;SDS011;73488;47.234;-1.540;2023-11-21T14:42:34;1.20;;;0.50;;
83125;SDS011;73488;47.234;-1.540;2023-11-21T14:45:02;2.70;;;0.52;;
83125;SDS011;73488;47.234;-1.540;2023-11-21T14:47:31;2.15;;;0.77;;
83125;SDS011;73488;47.234;-1.540;2023-11-21T14:49:58;1.30;;;1.00;;
83125;SDS011;73488;47.234;-1.540;2023-11-21T14:52:25;1.88;;;0.52;;
83125;SDS011;73488;47.234;-1.540;2023-11-21T14:57:46;1.50;;;0.82;;
83125;SDS011;73488;47.234;-1.540;2023-11-21T15:00:17;3.38;;;1.15;;
83125;SDS011;73488;47.234;-1.540;2023-11-21T15:03:01;2.45;;;0.73;;
83125;SDS011;73488;47.234;-1.540;2023-11-21T15:05:27;2.88;;;1.23;;
83125;SDS011;73488;47.234;-1.540;2023-11-21T15:07:54;2.17;;;0.70;;
83125;SDS011;73488;47.234;-1.540;2023-11-21T15:10:22;2.38;;;0.82;;
83125;SDS011;73488;47.234;-1.540;2023-11-21T15:13:03;2.80;;;0.63;;
83125;SDS011;73488;47.234;-1.540;2023-11-21T15:15:28;2.35;;;0.75;;
83125;SDS011;73488;47.234;-1.540;2023-11-21T15:17:56;1.92;;;1.05;;
83125;SDS011;73488;47.234;-1.540;2023-11-21T15:20:21;3.47;;;1.10;;
83125;SDS011;73488;47.234;-1.540;2023-11-21T15:22:47;1.83;;;0.85;;
83125;SDS011;73488;47.234;-1.540;2023-11-21T15:25:13;3.30;;;1.15;;
83125;SDS011;73488;47.234;-1.540;2023-11-21T15:27:39;6.75;;;1.25;;
83125;SDS011;73488;47.234;-1.540;2023-11-21T15:30:06;5.40;;;0.93;;
83125;SDS011;73488;47.234;-1.540;2023-11-21T15:32:32;3.28;;;1.10;;
83125;SDS011;73488;47.234;-1.540;2023-11-21T15:34:57;4.57;;;0.85;;
83125;SDS011;73488;47.234;-1.540;2023-11-21T15:37:23;3.33;;;1.00;;
83125;SDS011;73488;47.234;-1.540;2023-11-21T15:39:51;3.45;;;1.05;;
83125;SDS011;73488;47.234;-1.540;2023-11-21T15:42:16;2.42;;;1.10;;
83125;SDS011;73488;47.234;-1.540;2023-11-21T15:44:42;3.08;;;1.42;;
83125;SDS011;73488;47.234;-1.540;2023-11-21T15:47:07;5.13;;;1.10;;
83125;SDS011;73488;47.234;-1.540;2023-11-21T15:49:34;3.72;;;1.35;;
83125;SDS011;73488;47.234;-1.540;2023-11-21T15:52:01;3.22;;;1.10;;
83125;SDS011;73488;47.234;-1.540;2023-11-21T15:54:27;2.60;;;1.10;;
83125;SDS011;73488;47.234;-1.540;2023-11-21T15:56:54;6.72;;;1.73;;
83125;SDS011;73488;47.234;-1.540;2023-11-21T15:59:25;3.42;;;1.33;;
83125;SDS011;73488;47.234;-1.540;2023-11-21T16:01:56;3.40;;;0.85;;
83125;SDS011;73488;47.234;-1.540;2023-11-21T16:04:24;3.10;;;1.23;;
83125;SDS011;73488;47.234;-1.540;2023-11-21T16:06:52;8.35;;;1.85;;
83125;SDS011;73488;47.234;-1.540;2023-11-21T16:09:18;6.68;;;1.33;;
83125;SDS011;73488;47.234;-1.540;2023-11-21T16:11:56;5.80;;;1.48;;
83125;SDS011;73488;47.234;-1.540;2023-11-21T16:14:27;6.47;;;1.20;;
83125;SDS011;73488;47.234;-1.540;2023-11-21T16:17:11;6.65;;;1.58;;
83125;SDS011;73488;47.234;-1.540;2023-11-21T16:19:39;4.80;;;1.00;;
83125;SDS011;73488;47.234;-1.540;2023-11-21T16:22:05;6.35;;;1.63;;
83125;SDS011;73488;47.234;-1.540;2023-11-21T16:24:31;5.18;;;1.40;;
83125;SDS011;73488;47.234;-1.540;2023-11-21T16:26:58;5.40;;;1.33;;
83125;SDS011;73488;47.234;-1.540;2023-11-21T16:29:24;7.90;;;1.45;;
83125;SDS011;73488;47.234;-1.540;2023-11-21T16:31:49;3.85;;;1.65;;
83125;SDS011;73488;47.234;-1.540;2023-11-21T16:34:17;7.07;;;1.60;;
83125;SDS011;73488;47.234;-1.540;2023-11-21T16:36:43;6.72;;;1.63;;
83125;SDS011;73488;47.234;-1.540;2023-11-21T16:39:10;7.35;;;1.85;;
83125;SDS011;73488;47.234;-1.540;2023-11-21T16:41:39;11.52;;;1.77;;
83125;SDS011;73488;47.234;-1.540;2023-11-21T16:44:05;4.05;;;1.35;;
83125;SDS011;73488;47.234;-1.540;2023-11-21T16:46:31;6.57;;;1.52;;
83125;SDS011;73488;47.234;-1.540;2023-11-21T16:48:56;7.05;;;1.67;;
83125;SDS011;73488;47.234;-1.540;2023-11-21T16:51:22;10.60;;;1.98;;
83125;SDS011;73488;47.234;-1.540;2023-11-21T16:53:47;4.50;;;1.30;;
83125;SDS011;73488;47.234;-1.540;2023-11-21T16:56:13;13.07;;;1.60;;
83125;SDS011;73488;47.234;-1.540;2023-11-21T16:58:38;5.15;;;1.48;;
83125;SDS011;73488;47.234;-1.540;2023-11-21T17:01:04;6.78;;;1.95;;
83125;SDS011;73488;47.234;-1.540;2023-11-21T17:03:32;6.72;;;2.00;;
83125;SDS011;73488;47.234;-1.540;2023-11-21T17:05:57;6.88;;;1.60;;
83125;SDS011;73488;47.234;-1.540;2023-11-21T17:08:23;8.43;;;1.65;;
83125;SDS011;73488;47.234;-1.540;2023-11-21T17:10:48;7.28;;;1.70;;
83125;SDS011;73488;47.234;-1.540;2023-11-21T17:13:17;7.40;;;1.63;;
83125;SDS011;73488;47.234;-1.540;2023-11-21T17:15:43;6.25;;;2.00;;
83125;SDS011;73488;47.234;-1.540;2023-11-21T17:18:09;3.45;;;1.30;;
83125;SDS011;73488;47.234;-1.540;2023-11-21T17:20:34;7.95;;;1.75;;
83125;SDS011;73488;47.234;-1.540;2023-11-21T17:23:01;4.60;;;1.95;;